Time;durP1;ratioP1;P1;durP2;ratioP2;P2;SDS_P1;SDS_P2;PMS_P1;PMS_P2;Temp;Humidity;BMP_temperature;BMP_pressure;BME280_temperature;BME280_humidity;BME280_pressure;Samples;Min_cycle;Max_cycle;Signal;HPM_P1;HPM_P2
2023/10/20 00:00:37;;;;;;;10.37;9.37;;;13.70;99.90;;;;;;5055780;28;20202;-59
2023/10/20 00:03:04;;;;;;;12.23;10.90;;;13.60;99.90;;;;;;5060809;28;20246;-60
2023/10/20 00:05:31;;;;;;;10.53;9.53;;;13.60;99.90;;;;;;5060126;28;20252;-59
2023/10/20 00:07:58;;;;;;;11.73;10.50;;;13.60;99.90;;;;;;5071227;28;20208;-60
2023/10/20 00:10:28;;;;;;;12.37;10.93;;;13.60;99.90;;;;;;5071087;28;20738;-60
2023/10/20 00:12:55;;;;;;;12.23;11.00;;;13.60;99.90;;;;;;5070743;28;20302;-59
2023/10/20 00:15:23;;;;;;;11.73;10.63;;;13.70;99.90;;;;;;5071055;28;20263;-59
2023/10/20 00:17:50;;;;;;;13.47;11.53;;;13.70;99.90;;;;;;5050299;28;20554;-59
2023/10/20 00:20:17;;;;;;;10.57;9.57;;;13.60;99.90;;;;;;5050936;28;20259;-60
2023/10/20 00:22:45;;;;;;;10.93;9.83;;;13.60;99.90;;;;;;5052457;28;20697;-60
2023/10/20 00:25:12;;;;;;;11.63;10.43;;;13.60;99.90;;;;;;5054916;28;20629;-59
2023/10/20 00:27:41;;;;;;;11.10;10.07;;;13.50;99.90;;;;;;5054689;28;20262;-59
2023/10/20 00:30:11;;;;;;;11.67;9.73;;;13.50;99.90;;;;;;5059446;28;20776;-59
2023/10/20 00:32:40;;;;;;;9.53;8.70;;;13.50;99.90;;;;;;5069207;28;20764;-59
2023/10/20 00:35:08;;;;;;;12.90;9.10;;;13.50;99.90;;;;;;5066289;28;20193;-59
2023/10/20 00:37:35;;;;;;;10.03;9.20;;;13.50;99.90;;;;;;5074602;28;20630;-59
2023/10/20 00:40:02;;;;;;;14.73;11.23;;;13.50;99.90;;;;;;5074558;28;20224;-59
2023/10/20 00:42:30;;;;;;;10.60;9.50;;;13.50;99.90;;;;;;5065543;28;20283;-59
2023/10/20 00:44:59;;;;;;;11.03;9.93;;;13.50;99.90;;;;;;5066999;28;20253;-59
2023/10/20 00:47:27;;;;;;;10.83;9.83;;;13.50;99.90;;;;;;5074396;28;20715;-59
2023/10/20 00:49:54;;;;;;;9.40;8.50;;;13.40;99.90;;;;;;5060048;28;20255;-59
2023/10/20 00:52:23;;;;;;;9.30;8.30;;;13.40;99.90;;;;;;5069974;28;20271;-59
2023/10/20 00:54:51;;;;;;;14.27;10.13;;;13.40;99.90;;;;;;5071280;28;20247;-59
2023/10/20 00:57:19;;;;;;;10.57;9.47;;;13.40;99.90;;;;;;5057961;28;20252;-59
2023/10/20 00:59:46;;;;;;;10.37;9.37;;;13.50;99.90;;;;;;5054436;28;20225;-59
2023/10/20 01:02:14;;;;;;;9.33;8.43;;;13.50;99.90;;;;;;5053384;28;20249;-59
2023/10/20 01:04:41;;;;;;;8.43;7.83;;;13.50;99.90;;;;;;5053900;28;20217;-59
2023/10/20 01:07:08;;;;;;;8.00;7.30;;;13.50;99.90;;;;;;5052529;28;20724;-59
2023/10/20 01:09:35;;;;;;;8.50;7.70;;;13.60;99.90;;;;;;5063252;28;20282;-59
2023/10/20 01:12:03;;;;;;;11.07;7.67;;;13.60;99.90;;;;;;5074138;28;20225;-59
2023/10/20 01:14:30;;;;;;;8.97;8.03;;;13.60;99.90;;;;;;5073545;28;20209;-59
2023/10/20 01:16:57;;;;;;;9.00;8.20;;;13.60;99.90;;;;;;5074141;28;20247;-59
2023/10/20 01:19:25;;;;;;;11.60;10.07;;;13.60;99.90;;;;;;5063282;28;20225;-59
2023/10/20 01:21:52;;;;;;;13.10;10.80;;;13.60;99.90;;;;;;5065220;28;20190;-59
2023/10/20 01:24:20;;;;;;;10.27;9.30;;;13.60;99.90;;;;;;5060682;28;20267;-60
2023/10/20 01:26:47;;;;;;;10.83;9.83;;;13.60;99.90;;;;;;5072991;28;20201;-60
2023/10/20 01:29:14;;;;;;;11.17;10.00;;;13.60;99.90;;;;;;5073509;28;20321;-60
2023/10/20 01:31:41;;;;;;;10.40;9.40;;;13.60;99.90;;;;;;5069378;28;20221;-59
2023/10/20 01:34:08;;;;;;;10.87;9.37;;;13.70;99.90;;;;;;5063344;28;20669;-59
2023/10/20 01:36:37;;;;;;;9.67;8.77;;;13.70;99.90;;;;;;5071198;28;20197;-59
2023/10/20 01:39:04;;;;;;;9.33;7.93;;;13.70;99.90;;;;;;5067553;28;20225;-59
2023/10/20 01:41:33;;;;;;;9.50;8.63;;;13.70;99.90;;;;;;5061723;28;20194;-59
2023/10/20 01:44:00;;;;;;;5.03;4.77;;;13.70;99.90;;;;;;5059798;28;20691;-59
2023/10/20 01:46:27;;;;;;;5.70;4.43;;;13.70;99.90;;;;;;5060216;28;20197;-59
2023/10/20 01:48:54;;;;;;;5.83;3.87;;;13.70;99.90;;;;;;5056627;28;20882;-59
2023/10/20 01:51:20;;;;;;;5.70;4.20;;;13.70;99.90;;;;;;5073080;28;20255;-59
2023/10/20 01:53:47;;;;;;;2.83;2.63;;;13.70;99.90;;;;;;5073050;28;20619;-59
2023/10/20 01:56:14;;;;;;;3.17;2.90;;;13.80;99.90;;;;;;5067230;28;20259;-59
2023/10/20 01:58:42;;;;;;;3.00;2.57;;;13.80;99.90;;;;;;5055809;28;20628;-59
2023/10/20 02:01:10;;;;;;;2.43;2.23;;;13.90;99.90;;;;;;5059096;28;20613;-59
2023/10/20 02:03:37;;;;;;;2.20;2.00;;;13.90;99.90;;;;;;5052694;28;20205;-59
2023/10/20 02:06:04;;;;;;;1.93;1.83;;;14.10;99.90;;;;;;5052933;28;20659;-59
2023/10/20 02:08:32;;;;;;;1.57;1.57;;;14.10;99.90;;;;;;5053003;28;20228;-60
2023/10/20 02:10:59;;;;;;;2.87;2.20;;;14.00;99.90;;;;;;5056228;28;20201;-59
2023/10/20 02:13:26;;;;;;;2.33;1.63;;;14.00;99.90;;;;;;5055169;28;20596;-59
2023/10/20 02:15:59;;;;;;;1.90;1.70;;;14.10;99.90;;;;;;5061050;28;20259;-59
2023/10/20 02:18:26;;;;;;;3.03;2.10;;;14.10;99.90;;;;;;5052689;28;20222;-59
2023/10/20 02:20:59;;;;;;;2.97;2.77;;;14.00;99.90;;;;;;5052859;28;20202;-59
2023/10/20 02:23:26;;;;;;;2.33;1.70;;;14.00;99.90;;;;;;5058753;28;20216;-60
2023/10/20 02:26:05;;;;;;;2.03;1.93;;;14.00;99.90;;;;;;5064149;28;20197;-59
2023/10/20 02:28:32;;;;;;;2.17;1.83;;;13.90;99.90;;;;;;5068341;28;20229;-59
2023/10/20 02:31:10;;;;;;;1.87;1.77;;;13.90;99.90;;;;;;5062722;28;20314;-60
2023/10/20 02:33:37;;;;;;;2.33;2.17;;;13.90;99.90;;;;;;5061527;28;20216;-59
2023/10/20 02:36:05;;;;;;;1.43;1.43;;;13.90;99.90;;;;;;5056261;28;20198;-60
2023/10/20 02:38:32;;;;;;;1.70;1.10;;;13.80;99.90;;;;;;5063792;28;20769;-59
2023/10/20 02:40:59;;;;;;;3.80;1.73;;;13.80;99.90;;;;;;5072193;28;20250;-59
2023/10/20 02:43:26;;;;;;;1.90;1.80;;;13.90;99.90;;;;;;5059512;28;20197;-59
2023/10/20 02:45:57;;;;;;;1.90;1.80;;;13.80;99.90;;;;;;5053401;28;20198;-60
2023/10/20 02:48:25;;;;;;;3.50;1.63;;;13.80;99.90;;;;;;5051288;28;20643;-60
2023/10/20 02:50:52;;;;;;;2.47;1.30;;;13.70;99.90;;;;;;5046198;28;20208;-59
2023/10/20 02:53:19;;;;;;;2.20;1.20;;;13.80;99.90;;;;;;5042884;28;20275;-59
2023/10/20 02:55:47;;;;;;;2.00;0.80;;;13.80;99.90;;;;;;5051679;28;20257;-59
2023/10/20 02:58:14;;;;;;;1.33;1.30;;;13.80;99.90;;;;;;5049704;28;20275;-59
2023/10/20 03:00:42;;;;;;;1.30;1.17;;;13.80;99.90;;;;;;5051951;28;20279;-59
2023/10/20 03:03:10;;;;;;;1.77;0.87;;;13.80;99.90;;;;;;5051216;28;20710;-59
2023/10/20 03:05:41;;;;;;;2.00;1.00;;;13.80;99.90;;;;;;5043351;28;20202;-59
2023/10/20 03:08:09;;;;;;;1.40;1.30;;;13.80;99.90;;;;;;5050755;28;20252;-60
2023/10/20 03:10:36;;;;;;;1.73;1.03;;;13.80;99.90;;;;;;5044082;28;20285;-60
2023/10/20 03:13:04;;;;;;;0.90;0.90;;;13.80;99.90;;;;;;5051345;28;20237;-59
2023/10/20 03:15:32;;;;;;;1.47;0.93;;;13.80;99.90;;;;;;5051319;28;20251;-60
2023/10/20 03:18:00;;;;;;;0.80;0.80;;;13.70;99.90;;;;;;5051494;28;20283;-60
2023/10/20 03:20:30;;;;;;;0.80;0.80;;;13.70;99.90;;;;;;5047857;28;20198;-59
2023/10/20 03:22:58;;;;;;;1.13;1.00;;;13.70;99.90;;;;;;5047959;28;20200;-59
2023/10/20 03:25:26;;;;;;;1.70;1.60;;;13.70;99.90;;;;;;5058492;28;20258;-59
2023/10/20 03:27:52;;;;;;;0.77;0.77;;;13.70;99.90;;;;;;5062182;28;20197;-59
2023/10/20 03:30:19;;;;;;;1.43;1.37;;;13.70;99.90;;;;;;5062091;28;20271;-59
2023/10/20 03:32:48;;;;;;;1.70;1.10;;;13.70;99.90;;;;;;5055452;28;20209;-60
2023/10/20 03:35:16;;;;;;;1.13;0.87;;;13.80;99.90;;;;;;5063095;28;20241;-60
2023/10/20 03:37:43;;;;;;;0.90;0.90;;;13.80;99.90;;;;;;5052644;28;20220;-59
2023/10/20 03:40:14;;;;;;;1.73;0.90;;;13.70;99.90;;;;;;5056389;28;20244;-59
2023/10/20 03:42:43;;;;;;;1.33;0.70;;;13.90;99.90;;;;;;5060862;28;20197;-59
2023/10/20 03:45:10;;;;;;;0.93;0.93;;;13.90;99.90;;;;;;5048547;28;20305;-59
2023/10/20 03:47:39;;;;;;;1.13;0.87;;;13.90;99.90;;;;;;5061234;28;20788;-59
2023/10/20 03:50:14;;;;;;;1.57;1.47;;;13.90;99.90;;;;;;5055108;28;20253;-59
2023/10/20 03:52:42;;;;;;;1.93;1.63;;;13.90;99.90;;;;;;5048487;28;20323;-59
2023/10/20 03:55:13;;;;;;;1.70;1.60;;;13.90;99.90;;;;;;5041753;28;20205;-59
2023/10/20 03:57:41;;;;;;;1.63;1.53;;;13.80;99.90;;;;;;5037930;28;20234;-59
2023/10/20 04:00:17;;;;;;;2.60;1.57;;;13.80;99.90;;;;;;5055251;28;20736;-59
2023/10/20 04:02:46;;;;;;;1.00;1.00;;;14.00;99.90;;;;;;5044743;28;20651;-59
2023/10/20 04:05:14;;;;;;;1.57;1.43;;;13.90;99.90;;;;;;5047207;28;20232;-59
2023/10/20 04:07:42;;;;;;;1.40;1.30;;;13.80;99.90;;;;;;5054827;28;20641;-59
2023/10/20 04:10:09;;;;;;;2.60;0.90;;;13.80;99.90;;;;;;5051701;28;20224;-59
2023/10/20 04:12:41;;;;;;;1.37;1.27;;;13.90;99.90;;;;;;5045840;28;20301;-60
2023/10/20 04:15:14;;;;;;;1.13;0.80;;;13.80;99.90;;;;;;5054766;28;20202;-59
2023/10/20 04:17:42;;;;;;;1.20;1.10;;;13.70;99.90;;;;;;5054711;28;20206;-59
2023/10/20 04:20:15;;;;;;;1.40;0.80;;;13.60;99.90;;;;;;5054482;28;20637;-59
2023/10/20 04:22:43;;;;;;;1.43;1.17;;;13.60;99.90;;;;;;5053991;28;20685;-59
2023/10/20 04:25:12;;;;;;;1.67;1.07;;;13.70;99.90;;;;;;5053116;28;20201;-59
2023/10/20 04:27:48;;;;;;;1.17;0.80;;;13.70;99.90;;;;;;5054321;28;20739;-59
2023/10/20 04:58:01;;;;;;;1.10;1.00;;;14.00;99.90;;;;;;5051415;28;20197;-59
2023/10/20 05:03:30;;;;;;;2.40;2.23;;;14.10;99.90;;;;;;5047081;28;20194;-59
2023/10/20 05:06:12;;;;;;;4.27;2.60;;;14.10;99.90;;;;;;5053670;28;20285;-59
2023/10/20 05:08:39;;;;;;;3.30;2.07;;;14.10;99.90;;;;;;5049431;28;20240;-59
2023/10/20 05:11:06;;;;;;;1.90;1.77;;;14.20;99.90;;;;;;5053364;28;20209;-59
2023/10/20 05:13:33;;;;;;;2.80;2.60;;;14.20;99.90;;;;;;5052875;28;20217;-59
2023/10/20 05:16:02;;;;;;;3.47;3.27;;;14.10;99.90;;;;;;5045500;28;20194;-60
2023/10/20 05:18:29;;;;;;;1.73;1.70;;;14.00;99.90;;;;;;5052795;28;20217;-59
2023/10/20 05:21:04;;;;;;;2.40;2.20;;;14.10;99.90;;;;;;5043723;28;20209;-59
2023/10/20 05:23:31;;;;;;;1.80;1.77;;;14.10;99.90;;;;;;5048838;28;20272;-59
2023/10/20 05:26:02;;;;;;;1.90;1.80;;;14.00;99.90;;;;;;5049811;28;20247;-60
2023/10/20 05:28:30;;;;;;;2.00;1.90;;;14.00;99.90;;;;;;5053176;28;20291;-59
2023/10/20 05:30:59;;;;;;;1.57;1.47;;;14.00;99.90;;;;;;5040954;28;20339;-59
2023/10/20 05:33:27;;;;;;;1.80;1.70;;;14.00;99.90;;;;;;5050587;28;20761;-64
2023/10/20 05:36:00;;;;;;;1.50;1.50;;;14.00;99.90;;;;;;5050588;28;20206;-63
2023/10/20 05:38:27;;;;;;;2.07;1.97;;;13.90;99.90;;;;;;5044435;28;20249;-63
2023/10/20 05:41:00;;;;;;;2.60;1.40;;;13.90;99.90;;;;;;5049852;28;20210;-62
2023/10/20 05:43:27;;;;;;;4.00;2.07;;;13.90;99.90;;;;;;5033195;28;20206;-63
2023/10/20 05:45:58;;;;;;;1.20;1.20;;;14.00;99.90;;;;;;5046176;28;20221;-65
2023/10/20 05:48:25;;;;;;;2.93;1.40;;;14.10;99.90;;;;;;5050478;28;20633;-65
2023/10/20 05:50:59;;;;;;;2.30;2.13;;;14.00;99.90;;;;;;5053032;28;20229;-66
2023/10/20 05:53:26;;;;;;;1.70;1.60;;;14.10;99.90;;;;;;5043441;28;20225;-67
2023/10/20 05:55:53;;;;;;;3.37;2.00;;;14.10;99.90;;;;;;5045656;28;20198;-68
2023/10/20 05:58:22;;;;;;;5.47;3.70;;;14.20;99.90;;;;;;5046794;28;20218;-67
2023/10/20 06:00:49;;;;;;;8.00;5.70;;;14.10;99.90;;;;;;5041383;28;20661;-67
2023/10/20 06:03:16;;;;;;;7.03;3.93;;;14.00;99.90;;;;;;5039006;28;20546;-67
2023/10/20 06:05:44;;;;;;;3.50;3.20;;;14.10;99.90;;;;;;5050767;28;20202;-68
2023/10/20 06:08:12;;;;;;;3.00;1.87;;;14.10;99.90;;;;;;5045174;28;20230;-66
2023/10/20 06:10:39;;;;;;;5.67;2.63;;;14.00;99.90;;;;;;5048534;28;20209;-67
2023/10/20 06:13:06;;;;;;;1.53;1.43;;;14.00;99.90;;;;;;5051422;28;20259;-67
2023/10/20 06:15:33;;;;;;;3.37;1.33;;;14.00;99.90;;;;;;5052566;28;20205;-68
2023/10/20 06:18:00;;;;;;;1.57;1.33;;;14.00;99.90;;;;;;5041690;28;20264;-58
2023/10/20 06:20:27;;;;;;;2.73;2.17;;;14.00;99.90;;;;;;5051850;28;20205;-58
2023/10/20 06:22:54;;;;;;;2.40;1.43;;;14.00;99.90;;;;;;5050457;28;20291;-66
2023/10/20 06:25:23;;;;;;;1.07;1.07;;;14.00;99.90;;;;;;5044124;28;20201;-64
2023/10/20 06:27:49;;;;;;;2.37;2.17;;;14.10;99.90;;;;;;5042277;28;20730;-63
2023/10/20 06:30:21;;;;;;;3.93;2.00;;;14.30;99.90;;;;;;5050878;28;20222;-62
2023/10/20 06:32:56;;;;;;;2.20;2.10;;;14.30;99.90;;;;;;5057419;28;20208;-63
2023/10/20 06:35:32;;;;;;;2.43;2.23;;;14.30;99.90;;;;;;5044077;28;20202;-70
2023/10/20 06:38:11;;;;;;;2.33;1.37;;;14.20;99.90;;;;;;5044195;28;20612;-69
2023/10/20 06:40:41;;;;;;;1.17;0.90;;;14.30;99.90;;;;;;5048598;28;20206;-71
2023/10/20 06:43:08;;;;;;;0.70;0.70;;;14.40;99.90;;;;;;5038588;28;20302;-69
2023/10/20 06:45:35;;;;;;;0.60;0.60;;;14.40;99.90;;;;;;5040419;28;20210;-65
2023/10/20 06:48:02;;;;;;;2.30;0.90;;;14.60;99.90;;;;;;5049425;28;20881;-66
2023/10/20 06:50:29;;;;;;;0.40;0.40;;;14.80;99.90;;;;;;5047700;28;20205;-65
2023/10/20 06:52:56;;;;;;;2.30;0.70;;;14.90;99.90;;;;;;5050708;28;20928;-67
2023/10/20 06:55:24;;;;;;;0.63;0.63;;;14.90;99.90;;;;;;5051752;28;20669;-67
2023/10/20 06:57:53;;;;;;;0.60;0.53;;;14.90;99.90;;;;;;5051421;28;20226;-66
2023/10/20 07:00:20;;;;;;;0.73;0.73;;;15.00;99.90;;;;;;5051615;28;20208;-67
2023/10/20 07:02:48;;;;;;;2.43;0.70;;;15.10;99.90;;;;;;5048912;28;20197;-67
2023/10/20 07:05:17;;;;;;;0.60;0.60;;;15.10;99.90;;;;;;5057327;28;20193;-65
2023/10/20 07:07:44;;;;;;;1.30;0.40;;;15.10;99.90;;;;;;5070755;28;20289;-66
2023/10/20 07:10:11;;;;;;;3.40;2.40;;;15.10;99.90;;;;;;5071387;28;20217;-65
2023/10/20 07:12:38;;;;;;;5.80;0.83;;;15.20;99.90;;;;;;5070460;28;20209;-71
2023/10/20 07:15:08;;;;;;;0.90;0.90;;;15.20;99.90;;;;;;5071719;28;20221;-67
2023/10/20 07:17:35;;;;;;;1.73;1.00;;;15.20;99.90;;;;;;5057719;28;20193;-69
2023/10/20 07:20:04;;;;;;;0.93;0.90;;;15.20;99.90;;;;;;5048980;28;20226;-69
2023/10/20 07:22:32;;;;;;;0.40;0.40;;;15.10;99.90;;;;;;5034988;28;20203;-70
2023/10/20 07:24:59;;;;;;;3.53;1.13;;;15.00;99.90;;;;;;5034723;28;20653;-70
2023/10/20 07:27:26;;;;;;;0.83;0.80;;;15.00;99.90;;;;;;5051744;28;20206;-68
2023/10/20 07:29:57;;;;;;;3.10;0.80;;;15.00;99.90;;;;;;5050749;28;20240;-68
2023/10/20 07:32:26;;;;;;;2.00;1.00;;;15.10;99.90;;;;;;5044122;28;20669;-63
2023/10/20 07:34:53;;;;;;;1.67;1.17;;;15.10;99.90;;;;;;5039230;28;20260;-62
2023/10/20 07:37:20;;;;;;;0.80;0.80;;;15.10;99.90;;;;;;5031977;28;20724;-62
2023/10/20 07:39:47;;;;;;;0.70;0.70;;;15.30;99.90;;;;;;5050834;28;20289;-62
2023/10/20 07:42:19;;;;;;;2.70;1.40;;;15.40;99.90;;;;;;5051052;28;20206;-64
2023/10/20 07:44:46;;;;;;;1.83;1.73;;;15.60;99.90;;;;;;5050366;28;20193;-63
2023/10/20 07:47:13;;;;;;;2.10;1.47;;;15.80;99.90;;;;;;5056846;28;20650;-62
2023/10/20 07:49:41;;;;;;;2.63;0.70;;;15.90;99.90;;;;;;5041651;28;20222;-62
2023/10/20 07:52:08;;;;;;;0.63;0.37;;;16.50;99.90;;;;;;5031009;28;20222;-60
2023/10/20 07:54:35;;;;;;;0.57;0.57;;;17.10;99.90;;;;;;5047394;28;20229;-60
2023/10/20 07:57:02;;;;;;;5.57;1.13;;;17.60;99.90;;;;;;5050932;28;20653;-60
2023/10/20 07:59:29;;;;;;;2.63;0.10;;;18.70;99.90;;;;;;5050763;28;20225;-60
2023/10/20 08:01:56;;;;;;;17.23;1.47;;;19.50;99.90;;;;;;5050878;28;20309;-60
2023/10/20 08:04:23;;;;;;;18.17;0.60;;;20.90;99.90;;;;;;5049596;28;20721;-60
2023/10/20 08:06:54;;;;;;;2.67;0.13;;;22.00;99.90;;;;;;5046622;28;20198;-60
2023/10/20 08:09:21;;;;;;;3.90;0.10;;;22.30;99.90;;;;;;5072711;22;20600;-58
2023/10/20 08:11:48;;;;;;;4.27;0.10;;;22.20;99.90;;;;;;5061780;28;20197;-58
2023/10/20 08:14:15;;;;;;;2.37;0.10;;;22.20;99.90;;;;;;5057032;28;20221;-58
2023/10/20 08:16:42;;;;;;;4.23;0.10;;;22.10;99.90;;;;;;5049875;28;20209;-57
2023/10/20 08:19:09;;;;;;;0.13;0.00;;;22.20;99.90;;;;;;5050099;28;20251;-58
2023/10/20 08:21:36;;;;;;;0.00;0.00;;;22.20;99.90;;;;;;5045020;28;20202;-58
2023/10/20 08:24:06;;;;;;;3.13;0.00;;;22.10;99.90;;;;;;5035185;28;20256;-57
2023/10/20 08:26:33;;;;;;;1.67;0.10;;;22.00;99.90;;;;;;5049778;28;20289;-57
2023/10/20 08:29:00;;;;;;;4.63;0.10;;;22.00;99.90;;;;;;5049672;28;20222;-57
2023/10/20 08:31:28;;;;;;;4.07;0.20;;;21.90;99.90;;;;;;5049852;28;20252;-57
2023/10/20 08:50:49;;;;;;;1.03;0.00;;;21.30;99.90;;;;;;5042985;28;20210;-58
2023/10/20 08:53:19;;;;;;;0.30;0.10;;;21.20;99.90;;;;;;5052656;28;20279;-57
2023/10/20 08:55:46;;;;;;;0.53;0.00;;;21.10;99.90;;;;;;5053349;28;20883;-57
2023/10/20 08:58:13;;;;;;;1.67;0.03;;;21.10;99.90;;;;;;5031579;28;20223;-56
2023/10/20 09:00:40;;;;;;;0.00;0.00;;;21.10;99.90;;;;;;5026083;28;20295;-59
2023/10/20 09:03:07;;;;;;;2.20;0.00;;;21.10;99.90;;;;;;5037542;28;20198;-55
2023/10/20 09:05:34;;;;;;;0.10;0.00;;;21.10;99.90;;;;;;5048999;28;20194;-56
2023/10/20 09:08:03;;;;;;;1.10;0.00;;;21.00;99.90;;;;;;5040267;28;20226;-56
2023/10/20 09:10:30;;;;;;;1.40;0.10;;;20.90;99.90;;;;;;5043631;28;20194;-56
2023/10/20 09:12:57;;;;;;;1.23;0.00;;;20.90;99.90;;;;;;5051684;28;20267;-56
2023/10/20 09:15:24;;;;;;;1.73;0.10;;;20.80;99.90;;;;;;5052922;28;20316;-56
2023/10/20 09:17:55;;;;;;;0.50;0.00;;;20.90;99.90;;;;;;5043511;28;20222;-56
2023/10/20 09:20:23;;;;;;;2.13;0.10;;;20.90;99.90;;;;;;5049974;28;20631;-56
2023/10/20 09:22:50;;;;;;;0.43;0.20;;;20.90;99.90;;;;;;5048379;28;20290;-56
2023/10/20 09:25:19;;;;;;;1.13;0.00;;;21.00;99.90;;;;;;5052648;28;20706;-57
2023/10/20 09:27:47;;;;;;;1.03;0.10;;;21.00;99.90;;;;;;5045145;28;20223;-56
2023/10/20 09:30:16;;;;;;;3.80;0.10;;;20.90;99.90;;;;;;5041483;28;20205;-56
2023/10/20 09:32:43;;;;;;;0.37;0.03;;;20.90;99.90;;;;;;5048706;28;20213;-56
2023/10/20 09:35:10;;;;;;;0.00;0.00;;;20.90;99.90;;;;;;5052381;28;20225;-57
2023/10/20 09:37:38;;;;;;;2.40;0.10;;;21.00;99.90;;;;;;5045447;28;20594;-57
2023/10/20 09:40:06;;;;;;;0.80;0.00;;;21.00;99.90;;;;;;5052438;28;20236;-57
2023/10/20 09:42:46;;;;;;;1.97;0.00;;;21.10;99.90;;;;;;5039050;28;20560;-56
2023/10/20 09:45:17;;;;;;;1.40;0.00;;;21.00;99.90;;;;;;5038626;28;20202;-56
2023/10/20 09:47:45;;;;;;;2.93;0.00;;;21.00;99.90;;;;;;5044902;28;20323;-56
2023/10/20 09:50:13;;;;;;;2.50;0.10;;;21.00;99.90;;;;;;5052175;28;20205;-57
2023/10/20 09:52:42;;;;;;;1.43;0.10;;;21.00;99.90;;;;;;5040229;28;20197;-57
2023/10/20 09:55:11;;;;;;;0.30;0.10;;;21.00;99.90;;;;;;5051570;28;20662;-57
2023/10/20 09:57:40;;;;;;;2.40;0.10;;;21.00;99.90;;;;;;5044994;28;20301;-56
2023/10/20 10:00:08;;;;;;;3.57;0.20;;;21.00;99.90;;;;;;5045374;28;20205;-56
2023/10/20 10:02:35;;;;;;;0.40;0.10;;;21.00;99.90;;;;;;5048833;28;20212;-56
2023/10/20 10:05:02;;;;;;;2.23;0.10;;;21.00;99.90;;;;;;5051959;28;20202;-56
2023/10/20 10:07:30;;;;;;;2.87;0.07;;;21.00;99.90;;;;;;5046369;28;20222;-56
2023/10/20 10:09:58;;;;;;;1.90;0.10;;;21.00;99.90;;;;;;5050990;28;20243;-57
2023/10/20 10:12:27;;;;;;;1.70;0.10;;;21.00;99.90;;;;;;5039511;28;20250;-56
2023/10/20 10:14:59;;;;;;;0.00;0.00;;;20.90;99.90;;;;;;5051725;28;20217;-56
2023/10/20 10:17:27;;;;;;;1.27;0.10;;;20.80;99.90;;;;;;5046947;28;20202;-56
2023/10/20 10:19:55;;;;;;;1.07;0.17;;;20.80;99.90;;;;;;5038857;28;20229;-57
2023/10/20 10:22:27;;;;;;;0.00;0.00;;;20.80;99.90;;;;;;5029702;28;20298;-56
2023/10/20 10:24:55;;;;;;;2.13;0.00;;;20.90;99.90;;;;;;5031323;28;20570;-56
2023/10/20 10:27:26;;;;;;;0.00;0.00;;;20.80;99.90;;;;;;5030485;28;20202;-56
2023/10/20 10:29:54;;;;;;;0.17;0.00;;;20.80;99.90;;;;;;5031682;28;20660;-56
2023/10/20 10:32:26;;;;;;;0.20;0.00;;;20.80;99.90;;;;;;5031425;28;20289;-57
2023/10/20 10:34:53;;;;;;;0.07;0.00;;;20.70;99.90;;;;;;5031203;28;20225;-56
2023/10/20 10:37:32;;;;;;;0.00;0.00;;;20.70;99.90;;;;;;5029770;28;20244;-56
2023/10/20 10:40:10;;;;;;;0.10;0.10;;;20.70;99.90;;;;;;5026685;28;20214;-56
2023/10/20 10:42:42;;;;;;;0.00;0.00;;;20.70;99.90;;;;;;5030937;28;20678;-56
2023/10/20 10:45:21;;;;;;;0.00;0.00;;;20.70;99.90;;;;;;5031239;28;20199;-60
2023/10/20 10:47:49;;;;;;;0.00;0.00;;;20.50;99.90;;;;;;5028264;28;20249;-60
2023/10/20 10:50:20;;;;;;;1.07;0.00;;;20.40;99.90;;;;;;5031293;28;20198;-59
2023/10/20 10:52:47;;;;;;;0.10;0.00;;;20.30;99.90;;;;;;5030770;28;20282;-59
2023/10/20 10:55:14;;;;;;;0.10;0.00;;;20.40;99.90;;;;;;5031020;28;20410;-59
2023/10/20 10:57:42;;;;;;;0.73;0.00;;;20.30;99.90;;;;;;5029523;28;20219;-60
2023/10/20 11:00:13;;;;;;;0.00;0.00;;;20.20;99.90;;;;;;5030777;28;20202;-60
2023/10/20 11:02:40;;;;;;;1.33;0.10;;;20.10;99.90;;;;;;5030229;28;20269;-60
2023/10/20 11:05:09;;;;;;;0.10;0.10;;;20.20;99.90;;;;;;5030800;28;20268;-59
2023/10/20 11:07:36;;;;;;;0.13;0.13;;;20.20;99.90;;;;;;5027466;28;20325;-60
2023/10/20 11:10:05;;;;;;;0.20;0.20;;;20.20;99.90;;;;;;5022948;28;20272;-60
2023/10/20 11:12:34;;;;;;;0.50;0.50;;;20.30;99.90;;;;;;5029821;28;20213;-59
2023/10/20 11:15:01;;;;;;;0.90;0.90;;;20.30;99.90;;;;;;5029683;28;20218;-60
2023/10/20 11:17:28;;;;;;;0.40;0.40;;;20.30;99.90;;;;;;5029041;28;20248;-57
2023/10/20 11:19:56;;;;;;;0.50;0.50;;;20.30;99.90;;;;;;5028205;28;20213;-59
2023/10/20 11:22:25;;;;;;;1.53;1.43;;;20.20;99.90;;;;;;5029436;28;20253;-57
2023/10/20 11:24:53;;;;;;;0.60;0.60;;;20.10;99.90;;;;;;5030934;28;20198;-59
2023/10/20 11:27:21;;;;;;;0.70;0.70;;;20.00;99.90;;;;;;5043622;28;20214;-59
2023/10/20 11:29:49;;;;;;;0.47;0.47;;;19.90;99.90;;;;;;5029366;28;20229;-59
2023/10/20 11:32:18;;;;;;;0.60;0.60;;;19.90;99.90;;;;;;5030507;28;20207;-58
2023/10/20 11:34:45;;;;;;;1.70;0.87;;;19.70;99.90;;;;;;5029861;28;20236;-58
2023/10/20 11:37:14;;;;;;;0.47;0.47;;;19.30;99.90;;;;;;5030407;28;20240;-60
2023/10/20 11:39:42;;;;;;;0.63;0.63;;;19.10;99.90;;;;;;5029218;28;20198;-60
2023/10/20 11:42:11;;;;;;;0.50;0.50;;;18.70;99.90;;;;;;5042487;28;20264;-60
2023/10/20 11:44:38;;;;;;;1.80;0.73;;;18.60;99.90;;;;;;5040600;28;20204;-59
2023/10/20 11:47:09;;;;;;;0.50;0.50;;;18.50;99.90;;;;;;5050291;28;20293;-60
2023/10/20 11:49:36;;;;;;;0.40;0.40;;;18.50;99.90;;;;;;5037090;28;20205;-59
2023/10/20 11:52:07;;;;;;;0.40;0.40;;;18.30;99.90;;;;;;5050313;28;20198;-60
2023/10/20 11:54:34;;;;;;;0.40;0.40;;;18.10;99.90;;;;;;5040258;28;20446;-60
2023/10/20 11:57:02;;;;;;;1.33;0.30;;;17.90;99.90;;;;;;5030653;28;20194;-61
2023/10/20 11:59:29;;;;;;;0.30;0.30;;;17.90;99.90;;;;;;5038858;28;20225;-60
2023/10/20 12:01:56;;;;;;;0.50;0.50;;;17.80;99.90;;;;;;5039597;28;20202;-61
2023/10/20 12:04:23;;;;;;;0.40;0.40;;;17.80;99.90;;;;;;5036338;28;20700;-59
2023/10/20 12:06:50;;;;;;;1.47;0.40;;;17.70;99.90;;;;;;5034911;28;20202;-56
2023/10/20 12:09:19;;;;;;;2.00;0.30;;;17.80;99.90;;;;;;5025900;28;20234;-56
2023/10/20 12:11:47;;;;;;;0.73;0.37;;;17.70;99.90;;;;;;5027098;28;20238;-55
2023/10/20 12:14:15;;;;;;;0.40;0.40;;;17.70;99.90;;;;;;5029220;28;20257;-55
2023/10/20 12:16:42;;;;;;;0.30;0.30;;;17.70;99.90;;;;;;5029720;28;20575;-56
2023/10/20 12:19:09;;;;;;;0.20;0.20;;;17.70;99.90;;;;;;5030665;28;20245;-56
2023/10/20 12:21:36;;;;;;;0.20;0.20;;;17.60;99.90;;;;;;5033307;28;20206;-56
2023/10/20 12:24:04;;;;;;;0.20;0.20;;;17.50;99.90;;;;;;5033784;28;20206;-56
2023/10/20 12:26:31;;;;;;;0.23;0.23;;;17.40;99.90;;;;;;5034088;28;20206;-55
2023/10/20 12:28:58;;;;;;;0.20;0.20;;;17.30;99.90;;;;;;5032839;28;20671;-56
2023/10/20 12:31:28;;;;;;;0.00;0.00;;;17.40;99.90;;;;;;5028604;28;20202;-57
2023/10/20 12:33:55;;;;;;;0.10;0.10;;;17.40;99.90;;;;;;5033515;28;20202;-56
2023/10/20 12:36:22;;;;;;;0.10;0.10;;;17.40;99.90;;;;;;5033707;28;20269;-56
2023/10/20 12:38:49;;;;;;;0.10;0.10;;;17.20;99.90;;;;;;5032493;28;20638;-56
2023/10/20 12:41:16;;;;;;;0.10;0.10;;;17.20;99.90;;;;;;5033584;28;20211;-56
2023/10/20 12:43:46;;;;;;;0.10;0.10;;;17.10;99.90;;;;;;5021524;28;20203;-55
2023/10/20 12:46:13;;;;;;;0.17;0.17;;;17.10;99.90;;;;;;5033639;28;20666;-56
2023/10/20 12:48:43;;;;;;;0.10;0.10;;;17.10;99.90;;;;;;5039553;28;20226;-56
2023/10/20 12:51:10;;;;;;;1.67;0.30;;;17.10;99.90;;;;;;5033739;28;20239;-56
2023/10/20 12:53:37;;;;;;;1.07;0.30;;;17.00;99.90;;;;;;5032926;28;20210;-55
2023/10/20 12:56:09;;;;;;;0.10;0.10;;;17.00;99.90;;;;;;5033429;28;20218;-56
2023/10/20 12:58:36;;;;;;;0.20;0.20;;;16.90;99.90;;;;;;5032410;28;20218;-55
2023/10/20 13:01:06;;;;;;;0.30;0.30;;;16.80;99.90;;;;;;5033178;28;20686;-56
2023/10/20 13:03:33;;;;;;;0.20;0.20;;;16.70;99.90;;;;;;5033118;28;20209;-55
2023/10/20 13:06:06;;;;;;;3.13;0.50;;;16.50;99.90;;;;;;5034497;28;20247;-56
2023/10/20 13:08:33;;;;;;;1.60;0.47;;;16.40;99.90;;;;;;5031958;28;20230;-56
2023/10/20 13:11:04;;;;;;;0.30;0.30;;;16.30;99.90;;;;;;5032935;28;20658;-55
2023/10/20 13:13:32;;;;;;;0.30;0.30;;;16.20;99.90;;;;;;5031811;28;20202;-56
2023/10/20 13:16:03;;;;;;;2.60;2.23;;;16.10;99.90;;;;;;5030596;28;20224;-55
2023/10/20 13:18:30;;;;;;;4.50;4.10;;;16.10;99.90;;;;;;5033186;28;20228;-56
2023/10/20 13:20:57;;;;;;;4.43;1.00;;;15.90;99.90;;;;;;5035048;28;20253;-56
2023/10/20 13:23:26;;;;;;;1.33;0.70;;;15.80;99.90;;;;;;5037256;28;20202;-56
2023/10/20 13:26:04;;;;;;;1.33;1.10;;;15.50;99.90;;;;;;5034348;28;20230;-55
2023/10/20 13:28:31;;;;;;;0.83;0.60;;;15.60;99.90;;;;;;5034543;28;20222;-56
2023/10/20 13:31:03;;;;;;;1.13;0.93;;;15.50;99.90;;;;;;5031716;28;20199;-56
2023/10/20 13:33:31;;;;;;;0.60;0.60;;;15.50;99.90;;;;;;5025326;28;20199;-56
2023/10/20 13:36:02;;;;;;;3.00;0.53;;;15.50;99.90;;;;;;5031686;28;20714;-56
2023/10/20 13:38:32;;;;;;;1.43;0.60;;;15.40;99.90;;;;;;5032585;28;20219;-55